sensor_id;sensor_type;location;lat;lon;timestamp;pressure;altitude;pressure_sealevel;temperature;humidity
12795;BME280;6461;42.666;23.296;2022-08-05T00:01:09;94801.28;;;22.12;89.31
12795;BME280;6461;42.666;23.296;2022-08-05T00:03:36;94807.38;;;22.09;92.40
12795;BME280;6461;42.666;23.296;2022-08-05T00:06:03;94801.16;;;22.05;89.34
12795;BME280;6461;42.666;23.296;2022-08-05T00:08:29;94806.09;;;22.03;94.11
12795;BME280;6461;42.666;23.296;2022-08-05T00:10:56;94797.22;;;21.99;92.03
12795;BME280;6461;42.666;23.296;2022-08-05T00:13:23;94802.53;;;21.96;93.31
12795;BME280;6461;42.666;23.296;2022-08-05T00:15:51;94798.22;;;21.91;92.79
12795;BME280;6461;42.666;23.296;2022-08-05T00:18:17;94797.81;;;21.89;95.39
12795;BME280;6461;42.666;23.296;2022-08-05T00:20:44;94805.38;;;21.84;91.88
12795;BME280;6461;42.666;23.296;2022-08-05T00:23:10;94793.44;;;21.81;92.83
12795;BME280;6461;42.666;23.296;2022-08-05T00:25:37;94793.72;;;21.76;92.68
12795;BME280;6461;42.666;23.296;2022-08-05T00:28:04;94789.44;;;21.72;90.88
12795;BME280;6461;42.666;23.296;2022-08-05T00:30:30;94788.31;;;21.73;96.05
12795;BME280;6461;42.666;23.296;2022-08-05T00:32:58;94788.31;;;21.73;95.30
12795;BME280;6461;42.666;23.296;2022-08-05T00:35:25;94787.13;;;21.70;96.30
12795;BME280;6461;42.666;23.296;2022-08-05T00:37:51;94782.47;;;21.67;93.16
12795;BME280;6461;42.666;23.296;2022-08-05T00:40:18;94782.03;;;21.65;94.56
12795;BME280;6461;42.666;23.296;2022-08-05T00:42:44;94774.34;;;21.60;95.33
12795;BME280;6461;42.666;23.296;2022-08-05T00:45:11;94778.13;;;21.59;94.11
12795;BME280;6461;42.666;23.296;2022-08-05T00:47:37;94772.31;;;21.54;95.72
12795;BME280;6461;42.666;23.296;2022-08-05T00:50:06;94782.13;;;21.50;88.80
12795;BME280;6461;42.666;23.296;2022-08-05T00:52:33;94778.19;;;21.24;90.97
12795;BME280;6461;42.666;23.296;2022-08-05T00:55:00;94777.28;;;21.36;92.68
12795;BME280;6461;42.666;23.296;2022-08-05T00:57:26;94780.00;;;21.39;91.00
12795;BME280;6461;42.666;23.296;2022-08-05T00:59:53;94776.97;;;21.41;93.46
12795;BME280;6461;42.666;23.296;2022-08-05T01:02:19;94781.16;;;21.38;95.33
12795;BME280;6461;42.666;23.296;2022-08-05T01:04:46;94785.28;;;21.36;96.43
12795;BME280;6461;42.666;23.296;2022-08-05T01:07:14;94786.75;;;21.33;97.68
12795;BME280;6461;42.666;23.296;2022-08-05T01:09:41;94779.03;;;21.28;96.82
12795;BME280;6461;42.666;23.296;2022-08-05T01:12:08;94777.84;;;21.26;100.00
12795;BME280;6461;42.666;23.296;2022-08-05T01:14:39;94789.56;;;21.21;100.00
12795;BME280;6461;42.666;23.296;2022-08-05T01:17:08;94787.25;;;21.20;97.99
12795;BME280;6461;42.666;23.296;2022-08-05T01:19:38;94786.38;;;21.16;99.60
12795;BME280;6461;42.666;23.296;2022-08-05T01:22:16;94788.22;;;21.12;100.00
12795;BME280;6461;42.666;23.296;2022-08-05T01:24:56;94780.81;;;21.05;100.00
12795;BME280;6461;42.666;23.296;2022-08-05T01:30:01;94782.81;;;20.93;100.00
12795;BME280;6461;42.666;23.296;2022-08-05T01:32:29;94782.66;;;20.86;100.00
12795;BME280;6461;42.666;23.296;2022-08-05T01:34:57;94786.03;;;20.83;100.00
12795;BME280;6461;42.666;23.296;2022-08-05T01:37:27;94793.94;;;20.79;100.00
12795;BME280;6461;42.666;23.296;2022-08-05T01:39:57;94786.97;;;20.75;99.57
12795;BME280;6461;42.666;23.296;2022-08-05T01:42:25;94788.88;;;20.74;100.00
12795;BME280;6461;42.666;23.296;2022-08-05T01:44:52;94790.00;;;20.73;100.00
12795;BME280;6461;42.666;23.296;2022-08-05T01:47:22;94793.81;;;20.72;100.00
12795;BME280;6461;42.666;23.296;2022-08-05T01:49:50;94788.03;;;20.70;100.00
12795;BME280;6461;42.666;23.296;2022-08-05T01:52:17;94792.59;;;20.70;100.00
12795;BME280;6461;42.666;23.296;2022-08-05T01:54:45;94794.72;;;20.64;100.00
12795;BME280;6461;42.666;23.296;2022-08-05T01:57:15;94799.22;;;20.60;100.00
12795;BME280;6461;42.666;23.296;2022-08-05T01:59:43;94794.91;;;20.55;100.00
12795;BME280;6461;42.666;23.296;2022-08-05T02:02:12;94800.19;;;20.52;100.00
12795;BME280;6461;42.666;23.296;2022-08-05T02:04:40;94795.94;;;20.51;100.00
12795;BME280;6461;42.666;23.296;2022-08-05T02:07:08;94805.44;;;20.48;100.00
12795;BME280;6461;42.666;23.296;2022-08-05T02:09:35;94797.00;;;20.46;100.00
12795;BME280;6461;42.666;23.296;2022-08-05T02:12:03;94789.31;;;20.45;100.00
12795;BME280;6461;42.666;23.296;2022-08-05T02:14:32;94793.13;;;20.44;100.00
12795;BME280;6461;42.666;23.296;2022-08-05T02:17:01;94796.91;;;20.43;100.00
12795;BME280;6461;42.666;23.296;2022-08-05T02:19:29;94791.13;;;20.41;100.00
12795;BME280;6461;42.666;23.296;2022-08-05T02:22:04;94794.94;;;20.40;100.00
12795;BME280;6461;42.666;23.296;2022-08-05T02:24:35;94795.97;;;20.35;100.00
12795;BME280;6461;42.666;23.296;2022-08-05T02:27:02;94800.44;;;20.31;100.00
12795;BME280;6461;42.666;23.296;2022-08-05T02:29:30;94795.78;;;20.28;100.00
12795;BME280;6461;42.666;23.296;2022-08-05T02:31:59;94796.47;;;20.25;100.00
12795;BME280;6461;42.666;23.296;2022-08-05T02:34:28;94789.81;;;20.19;100.00
12795;BME280;6461;42.666;23.296;2022-08-05T02:36:56;94788.53;;;20.13;100.00
12795;BME280;6461;42.666;23.296;2022-08-05T02:39:26;94790.34;;;20.09;100.00
12795;BME280;6461;42.666;23.296;2022-08-05T02:41:54;94794.44;;;20.07;100.00
12795;BME280;6461;42.666;23.296;2022-08-05T02:44:23;94803.47;;;20.02;100.00
12795;BME280;6461;42.666;23.296;2022-08-05T02:46:50;94794.38;;;20.03;100.00
12795;BME280;6461;42.666;23.296;2022-08-05T02:49:17;94793.59;;;20.03;100.00
12795;BME280;6461;42.666;23.296;2022-08-05T02:51:44;94782.84;;;19.99;100.00
12795;BME280;6461;42.666;23.296;2022-08-05T02:54:11;94786.69;;;20.02;100.00
12795;BME280;6461;42.666;23.296;2022-08-05T02:56:40;94784.81;;;20.02;100.00
12795;BME280;6461;42.666;23.296;2022-08-05T02:59:09;94790.84;;;19.99;100.00
12795;BME280;6461;42.666;23.296;2022-08-05T03:01:37;94791.75;;;19.91;100.00
12795;BME280;6461;42.666;23.296;2022-08-05T03:04:05;94786.97;;;19.97;100.00
12795;BME280;6461;42.666;23.296;2022-08-05T03:06:32;94787.44;;;19.86;100.00
12795;BME280;6461;42.666;23.296;2022-08-05T03:08:59;94791.88;;;19.95;100.00
12795;BME280;6461;42.666;23.296;2022-08-05T03:11:26;94799.94;;;19.98;100.00
12795;BME280;6461;42.666;23.296;2022-08-05T03:13:54;94795.03;;;20.00;100.00
12795;BME280;6461;42.666;23.296;2022-08-05T03:16:21;94786.63;;;19.98;100.00
12795;BME280;6461;42.666;23.296;2022-08-05T03:18:48;94800.72;;;19.99;100.00
12795;BME280;6461;42.666;23.296;2022-08-05T03:21:15;94794.25;;;20.00;100.00
12795;BME280;6461;42.666;23.296;2022-08-05T03:23:42;94801.81;;;19.98;100.00
12795;BME280;6461;42.666;23.296;2022-08-05T03:26:09;94801.81;;;19.98;100.00
12795;BME280;6461;42.666;23.296;2022-08-05T03:28:36;94794.41;;;19.91;100.00
12795;BME280;6461;42.666;23.296;2022-08-05T03:31:04;94793.91;;;19.85;100.00
12795;BME280;6461;42.666;23.296;2022-08-05T03:33:31;94800.94;;;19.78;100.00
12795;BME280;6461;42.666;23.296;2022-08-05T03:35:58;94793.50;;;19.71;100.00
12795;BME280;6461;42.666;23.296;2022-08-05T03:38:25;94799.88;;;19.67;100.00
12795;BME280;6461;42.666;23.296;2022-08-05T03:40:52;94794.44;;;19.63;100.00
12795;BME280;6461;42.666;23.296;2022-08-05T03:43:19;94792.03;;;19.58;100.00
12795;BME280;6461;42.666;23.296;2022-08-05T03:45:48;94796.16;;;19.56;100.00
12795;BME280;6461;42.666;23.296;2022-08-05T03:48:16;94801.38;;;19.52;100.00
12795;BME280;6461;42.666;23.296;2022-08-05T03:50:47;94796.38;;;19.51;100.00
12795;BME280;6461;42.666;23.296;2022-08-05T03:53:18;94796.38;;;19.51;100.00
12795;BME280;6461;42.666;23.296;2022-08-05T03:58:28;94794.38;;;19.48;100.00
12795;BME280;6461;42.666;23.296;2022-08-05T04:00:56;94800.19;;;19.50;100.00
12795;BME280;6461;42.666;23.296;2022-08-05T04:03:26;94799.06;;;19.51;100.00
12795;BME280;6461;42.666;23.296;2022-08-05T04:08:22;94790.41;;;19.54;100.00
12795;BME280;6461;42.666;23.296;2022-08-05T04:10:50;94796.91;;;19.56;100.00
12795;BME280;6461;42.666;23.296;2022-08-05T04:13:17;94803.38;;;19.55;100.00
12795;BME280;6461;42.666;23.296;2022-08-05T04:15:45;94799.91;;;19.55;100.00
12795;BME280;6461;42.666;23.296;2022-08-05T04:18:12;94808.47;;;19.60;100.00
12795;BME280;6461;42.666;23.296;2022-08-05T04:20:40;94808.13;;;19.62;100.00
12795;BME280;6461;42.666;23.296;2022-08-05T04:23:07;94793.22;;;19.61;100.00
12795;BME280;6461;42.666;23.296;2022-08-05T04:25:34;94798.69;;;19.64;100.00
12795;BME280;6461;42.666;23.296;2022-08-05T04:28:00;94796.31;;;19.63;100.00
12795;BME280;6461;42.666;23.296;2022-08-05T04:30:27;94793.00;;;19.66;100.00
12795;BME280;6461;42.666;23.296;2022-08-05T04:32:53;94790.41;;;19.69;100.00
12795;BME280;6461;42.666;23.296;2022-08-05T04:35:20;94794.06;;;19.77;100.00
12795;BME280;6461;42.666;23.296;2022-08-05T04:37:48;94791.59;;;19.84;100.00
12795;BME280;6461;42.666;23.296;2022-08-05T04:40:14;94795.13;;;19.88;100.00
12795;BME280;6461;42.666;23.296;2022-08-05T04:42:42;94791.44;;;19.93;100.00
12795;BME280;6461;42.666;23.296;2022-08-05T04:45:09;94784.97;;;19.94;100.00
12795;BME280;6461;42.666;23.296;2022-08-05T04:47:35;94797.63;;;19.97;100.00
12795;BME280;6461;42.666;23.296;2022-08-05T04:50:02;94791.94;;;19.98;100.00
12795;BME280;6461;42.666;23.296;2022-08-05T04:52:29;94796.25;;;20.03;100.00
12795;BME280;6461;42.666;23.296;2022-08-05T04:54:56;94794.97;;;19.97;100.00
12795;BME280;6461;42.666;23.296;2022-08-05T04:57:23;94791.72;;;20.03;100.00
12795;BME280;6461;42.666;23.296;2022-08-05T04:59:50;94791.44;;;19.93;100.00
12795;BME280;6461;42.666;23.296;2022-08-05T05:02:16;94793.66;;;20.06;100.00
12795;BME280;6461;42.666;23.296;2022-08-05T05:04:43;94783.13;;;20.10;100.00
12795;BME280;6461;42.666;23.296;2022-08-05T05:07:10;94794.50;;;20.22;100.00
12795;BME280;6461;42.666;23.296;2022-08-05T05:09:36;94789.69;;;20.28;100.00
12795;BME280;6461;42.666;23.296;2022-08-05T05:12:05;94784.78;;;20.30;100.00
12795;BME280;6461;42.666;23.296;2022-08-05T05:14:31;94789.50;;;20.36;100.00
12795;BME280;6461;42.666;23.296;2022-08-05T05:16:58;94787.00;;;20.43;100.00
12795;BME280;6461;42.666;23.296;2022-08-05T05:19:25;94790.97;;;20.49;100.00
12795;BME280;6461;42.666;23.296;2022-08-05T05:21:52;94784.94;;;20.52;100.00
12795;BME280;6461;42.666;23.296;2022-08-05T05:24:18;94781.94;;;20.54;100.00
12795;BME280;6461;42.666;23.296;2022-08-05T05:26:45;94785.44;;;20.58;100.00
12795;BME280;6461;42.666;23.296;2022-08-05T05:29:13;94784.50;;;20.66;100.00
12795;BME280;6461;42.666;23.296;2022-08-05T05:31:40;94786.81;;;20.68;100.00
12795;BME280;6461;42.666;23.296;2022-08-05T05:34:07;94784.13;;;20.83;100.00
12795;BME280;6461;42.666;23.296;2022-08-05T05:36:33;94780.94;;;20.93;100.00
12795;BME280;6461;42.666;23.296;2022-08-05T05:39:00;94780.72;;;21.02;98.21
12795;BME280;6461;42.666;23.296;2022-08-05T05:41:27;94785.06;;;21.06;97.47
12795;BME280;6461;42.666;23.296;2022-08-05T05:43:53;94779.66;;;20.87;97.83
12795;BME280;6461;42.666;23.296;2022-08-05T05:46:21;94784.50;;;21.16;97.38
12795;BME280;6461;42.666;23.296;2022-08-05T05:48:48;94776.88;;;21.34;93.53
12795;BME280;6461;42.666;23.296;2022-08-05T05:51:18;94786.72;;;21.49;94.26
12795;BME280;6461;42.666;23.296;2022-08-05T05:53:44;94787.75;;;21.64;91.90
12795;BME280;6461;42.666;23.296;2022-08-05T05:56:11;94785.69;;;21.76;90.79
12795;BME280;6461;42.666;23.296;2022-08-05T05:58:38;94787.25;;;21.96;88.70
12795;BME280;6461;42.666;23.296;2022-08-05T06:01:04;94791.41;;;22.17;88.00
12795;BME280;6461;42.666;23.296;2022-08-05T06:03:32;94785.66;;;22.37;88.07
12795;BME280;6461;42.666;23.296;2022-08-05T06:05:59;94790.16;;;22.56;85.80
12795;BME280;6461;42.666;23.296;2022-08-05T06:08:25;94788.59;;;22.74;83.35
12795;BME280;6461;42.666;23.296;2022-08-05T06:10:52;94788.53;;;22.97;82.42
12795;BME280;6461;42.666;23.296;2022-08-05T06:13:19;94792.97;;;23.15;80.16
12795;BME280;6461;42.666;23.296;2022-08-05T06:15:45;94797.81;;;23.32;78.46
12795;BME280;6461;42.666;23.296;2022-08-05T06:18:12;94791.91;;;23.49;77.90
12795;BME280;6461;42.666;23.296;2022-08-05T06:20:40;94799.47;;;23.70;76.55
12795;BME280;6461;42.666;23.296;2022-08-05T06:23:06;94793.16;;;23.89;71.59
12795;BME280;6461;42.666;23.296;2022-08-05T06:25:33;94798.75;;;24.10;71.14
12795;BME280;6461;42.666;23.296;2022-08-05T06:27:59;94797.44;;;24.30;73.76
12795;BME280;6461;42.666;23.296;2022-08-05T06:30:26;94794.53;;;24.49;69.62
12795;BME280;6461;42.666;23.296;2022-08-05T06:32:53;94791.19;;;24.63;68.32
12795;BME280;6461;42.666;23.296;2022-08-05T06:35:19;94788.69;;;24.80;68.27
12795;BME280;6461;42.666;23.296;2022-08-05T06:37:47;94791.13;;;25.03;66.32
12795;BME280;6461;42.666;23.296;2022-08-05T06:40:14;94789.28;;;25.18;64.48
12795;BME280;6461;42.666;23.296;2022-08-05T06:42:41;94795.13;;;25.30;62.91
12795;BME280;6461;42.666;23.296;2022-08-05T06:45:08;94789.84;;;25.44;62.11
12795;BME280;6461;42.666;23.296;2022-08-05T06:47:34;94788.00;;;25.62;62.86
12795;BME280;6461;42.666;23.296;2022-08-05T06:50:01;94786.50;;;25.75;60.87
12795;BME280;6461;42.666;23.296;2022-08-05T06:52:28;94790.00;;;25.90;58.98
12795;BME280;6461;42.666;23.296;2022-08-05T06:54:56;94791.66;;;26.09;59.07
12795;BME280;6461;42.666;23.296;2022-08-05T06:57:23;94783.19;;;26.24;55.31
12795;BME280;6461;42.666;23.296;2022-08-05T06:59:49;94780.91;;;26.44;58.00
12795;BME280;6461;42.666;23.296;2022-08-05T07:02:16;94786.69;;;26.56;56.66
12795;BME280;6461;42.666;23.296;2022-08-05T07:04:42;94777.09;;;26.73;56.71
12795;BME280;6461;42.666;23.296;2022-08-05T07:07:09;94783.59;;;26.65;55.70
12795;BME280;6461;42.666;23.296;2022-08-05T07:09:35;94788.63;;;26.91;55.26
12795;BME280;6461;42.666;23.296;2022-08-05T07:12:04;94780.91;;;27.11;56.83
12795;BME280;6461;42.666;23.296;2022-08-05T07:14:30;94790.88;;;27.28;55.80
12795;BME280;6461;42.666;23.296;2022-08-05T07:17:15;94791.59;;;27.50;54.87
12795;BME280;6461;42.666;23.296;2022-08-05T07:19:41;94791.56;;;27.67;54.02
12795;BME280;6461;42.666;23.296;2022-08-05T07:22:08;94797.31;;;27.76;50.65
12795;BME280;6461;42.666;23.296;2022-08-05T07:24:34;94793.38;;;27.91;51.40
12795;BME280;6461;42.666;23.296;2022-08-05T07:27:01;94796.81;;;28.02;50.68
12795;BME280;6461;42.666;23.296;2022-08-05T07:29:29;94791.44;;;27.95;49.30
12795;BME280;6461;42.666;23.296;2022-08-05T07:31:55;94791.00;;;28.07;50.27
12795;BME280;6461;42.666;23.296;2022-08-05T07:34:22;94790.81;;;28.36;50.18
12795;BME280;6461;42.666;23.296;2022-08-05T07:36:49;94793.13;;;28.37;48.69
12795;BME280;6461;42.666;23.296;2022-08-05T07:39:16;94787.66;;;28.48;48.47
12795;BME280;6461;42.666;23.296;2022-08-05T07:41:42;94795.94;;;28.78;49.94
12795;BME280;6461;42.666;23.296;2022-08-05T07:44:09;94783.72;;;29.04;48.70
12795;BME280;6461;42.666;23.296;2022-08-05T07:46:37;94793.94;;;29.30;48.01
12795;BME280;6461;42.666;23.296;2022-08-05T07:49:03;94780.88;;;29.21;45.53
12795;BME280;6461;42.666;23.296;2022-08-05T07:51:30;94782.50;;;29.52;44.65
12795;BME280;6461;42.666;23.296;2022-08-05T07:53:57;94777.31;;;29.65;44.64
12795;BME280;6461;42.666;23.296;2022-08-05T07:56:24;94786.34;;;29.89;46.11
12795;BME280;6461;42.666;23.296;2022-08-05T07:58:50;94782.94;;;30.11;44.59
12795;BME280;6461;42.666;23.296;2022-08-05T08:01:17;94780.72;;;30.33;43.10
12795;BME280;6461;42.666;23.296;2022-08-05T08:03:46;94785.19;;;30.43;41.15
12795;BME280;6461;42.666;23.296;2022-08-05T08:06:12;94785.78;;;30.31;40.65
12795;BME280;6461;42.666;23.296;2022-08-05T08:08:40;94790.88;;;30.52;40.82
12795;BME280;6461;42.666;23.296;2022-08-05T08:11:06;94782.41;;;30.73;40.27
12795;BME280;6461;42.666;23.296;2022-08-05T08:13:33;94776.53;;;31.01;41.26
12795;BME280;6461;42.666;23.296;2022-08-05T08:15:59;94785.28;;;30.89;38.89
12795;BME280;6461;42.666;23.296;2022-08-05T08:18:26;94777.06;;;31.16;39.50
12795;BME280;6461;42.666;23.296;2022-08-05T08:20:54;94780.91;;;31.38;38.90
12795;BME280;6461;42.666;23.296;2022-08-05T08:23:20;94779.03;;;31.58;39.43
12795;BME280;6461;42.666;23.296;2022-08-05T08:25:47;94777.81;;;31.79;38.96
12795;BME280;6461;42.666;23.296;2022-08-05T08:28:13;94783.34;;;31.95;36.84
12795;BME280;6461;42.666;23.296;2022-08-05T08:30:40;94782.03;;;32.19;36.56
12795;BME280;6461;42.666;23.296;2022-08-05T08:33:07;94780.63;;;32.31;35.49
12795;BME280;6461;42.666;23.296;2022-08-05T08:35:34;94779.88;;;32.46;35.58
12795;BME280;6461;42.666;23.296;2022-08-05T08:38:02;94773.97;;;32.68;34.45
12795;BME280;6461;42.666;23.296;2022-08-05T08:40:29;94780.25;;;32.81;35.31
12795;BME280;6461;42.666;23.296;2022-08-05T08:42:57;94778.38;;;32.78;32.71
12795;BME280;6461;42.666;23.296;2022-08-05T08:45:24;94776.69;;;32.68;32.52
12795;BME280;6461;42.666;23.296;2022-08-05T08:47:51;94773.47;;;33.05;33.08
12795;BME280;6461;42.666;23.296;2022-08-05T08:50:19;94780.53;;;33.31;33.70
12795;BME280;6461;42.666;23.296;2022-08-05T08:52:47;94774.97;;;33.51;32.04
12795;BME280;6461;42.666;23.296;2022-08-05T08:55:16;94773.31;;;33.69;31.65
12795;BME280;6461;42.666;23.296;2022-08-05T08:57:44;94773.69;;;33.84;32.61
12795;BME280;6461;42.666;23.296;2022-08-05T09:00:10;94771.97;;;34.03;32.29
12795;BME280;6461;42.666;23.296;2022-08-05T09:02:37;94772.22;;;34.21;30.65
12795;BME280;6461;42.666;23.296;2022-08-05T09:05:04;94765.16;;;34.36;31.29
12795;BME280;6461;42.666;23.296;2022-08-05T09:07:31;94765.59;;;34.59;31.06
12795;BME280;6461;42.666;23.296;2022-08-05T09:09:57;94749.63;;;34.83;30.78
12795;BME280;6461;42.666;23.296;2022-08-05T09:12:25;94754.88;;;34.78;27.89
12795;BME280;6461;42.666;23.296;2022-08-05T09:14:52;94754.28;;;34.95;29.25
12795;BME280;6461;42.666;23.296;2022-08-05T09:17:19;94749.28;;;35.06;28.19
12795;BME280;6461;42.666;23.296;2022-08-05T09:19:45;94750.31;;;35.21;27.65
12795;BME280;6461;42.666;23.296;2022-08-05T09:22:12;94739.53;;;35.39;29.57
12795;BME280;6461;42.666;23.296;2022-08-05T09:24:39;94746.03;;;35.55;28.65
12795;BME280;6461;42.666;23.296;2022-08-05T09:27:07;94741.59;;;35.70;27.87
12795;BME280;6461;42.666;23.296;2022-08-05T09:29:39;94738.84;;;35.70;27.52
12795;BME280;6461;42.666;23.296;2022-08-05T09:32:07;94728.75;;;35.79;26.97
12795;BME280;6461;42.666;23.296;2022-08-05T09:34:50;94732.56;;;35.82;25.73
12795;BME280;6461;42.666;23.296;2022-08-05T09:37:17;94727.91;;;35.70;25.74
12795;BME280;6461;42.666;23.296;2022-08-05T09:39:44;94727.44;;;35.06;25.22
12795;BME280;6461;42.666;23.296;2022-08-05T09:42:11;94721.06;;;34.62;26.33
12795;BME280;6461;42.666;23.296;2022-08-05T09:44:41;94715.38;;;35.16;27.42
12795;BME280;6461;42.666;23.296;2022-08-05T09:47:09;94715.25;;;35.54;28.08
12795;BME280;6461;42.666;23.296;2022-08-05T09:49:40;94719.31;;;35.80;26.84
12795;BME280;6461;42.666;23.296;2022-08-05T09:52:15;94718.44;;;36.05;26.15
12795;BME280;6461;42.666;23.296;2022-08-05T09:54:50;94719.88;;;36.28;25.53
12795;BME280;6461;42.666;23.296;2022-08-05T09:57:27;94705.47;;;36.36;25.58
12795;BME280;6461;42.666;23.296;2022-08-05T09:59:57;94715.75;;;36.23;25.30
12795;BME280;6461;42.666;23.296;2022-08-05T10:02:30;94709.25;;;36.30;25.35
12795;BME280;6461;42.666;23.296;2022-08-05T10:05:02;94707.75;;;36.29;25.31
12795;BME280;6461;42.666;23.296;2022-08-05T10:07:41;94705.84;;;36.47;27.09
12795;BME280;6461;42.666;23.296;2022-08-05T10:10:07;94706.78;;;36.62;24.52
12795;BME280;6461;42.666;23.296;2022-08-05T10:12:38;94703.59;;;36.55;24.04
12795;BME280;6461;42.666;23.296;2022-08-05T10:15:16;94697.09;;;36.79;25.97
12795;BME280;6461;42.666;23.296;2022-08-05T10:17:43;94700.16;;;36.72;23.81
12795;BME280;6461;42.666;23.296;2022-08-05T10:20:10;94694.25;;;36.92;25.40
12795;BME280;6461;42.666;23.296;2022-08-05T10:22:38;94698.06;;;37.13;25.28
12795;BME280;6461;42.666;23.296;2022-08-05T10:25:05;94688.78;;;37.10;24.90
12795;BME280;6461;42.666;23.296;2022-08-05T10:27:32;94687.72;;;37.17;24.99
12795;BME280;6461;42.666;23.296;2022-08-05T10:29:59;94685.75;;;37.17;24.60
12795;BME280;6461;42.666;23.296;2022-08-05T10:32:27;94694.41;;;36.98;23.91
12795;BME280;6461;42.666;23.296;2022-08-05T10:34:53;94692.13;;;36.96;23.51
12795;BME280;6461;42.666;23.296;2022-08-05T10:37:22;94685.91;;;36.96;23.80
12795;BME280;6461;42.666;23.296;2022-08-05T10:39:49;94689.53;;;37.02;24.20
12795;BME280;6461;42.666;23.296;2022-08-05T10:42:20;94692.59;;;37.22;25.18
12795;BME280;6461;42.666;23.296;2022-08-05T10:44:47;94691.53;;;37.10;23.09
12795;BME280;6461;42.666;23.296;2022-08-05T10:47:15;94687.56;;;37.11;22.98
12795;BME280;6461;42.666;23.296;2022-08-05T10:52:37;94682.56;;;37.37;23.18
12795;BME280;6461;42.666;23.296;2022-08-05T10:55:05;94663.50;;;37.51;24.43
12795;BME280;6461;42.666;23.296;2022-08-05T10:57:32;94667.56;;;37.83;24.58
12795;BME280;6461;42.666;23.296;2022-08-05T11:00:09;94664.69;;;36.69;22.78
12795;BME280;6461;42.666;23.296;2022-08-05T11:02:36;94661.88;;;37.09;24.44
12795;BME280;6461;42.666;23.296;2022-08-05T11:05:05;94652.25;;;37.49;22.95
12795;BME280;6461;42.666;23.296;2022-08-05T11:07:32;94653.09;;;37.83;23.72
12795;BME280;6461;42.666;23.296;2022-08-05T11:10:00;94664.00;;;38.01;23.38
12795;BME280;6461;42.666;23.296;2022-08-05T11:12:43;94656.97;;;38.00;22.61
12795;BME280;6461;42.666;23.296;2022-08-05T11:15:20;94658.59;;;38.24;23.03
12795;BME280;6461;42.666;23.296;2022-08-05T11:17:47;94656.03;;;38.45;24.63
12795;BME280;6461;42.666;23.296;2022-08-05T11:25:44;94648.38;;;38.49;23.51
12795;BME280;6461;42.666;23.296;2022-08-05T11:28:37;94639.44;;;38.72;21.57
12795;BME280;6461;42.666;23.296;2022-08-05T11:31:22;94645.16;;;38.97;23.65
12795;BME280;6461;42.666;23.296;2022-08-05T11:33:52;94641.94;;;38.99;20.53
12795;BME280;6461;42.666;23.296;2022-08-05T11:36:20;94642.13;;;39.34;21.19
12795;BME280;6461;42.666;23.296;2022-08-05T11:38:50;94632.63;;;39.35;21.95
12795;BME280;6461;42.666;23.296;2022-08-05T11:41:23;94637.47;;;39.40;21.66
12795;BME280;6461;42.666;23.296;2022-08-05T11:43:54;94642.03;;;39.43;21.60
12795;BME280;6461;42.666;23.296;2022-08-05T11:46:24;94632.34;;;39.33;21.10
12795;BME280;6461;42.666;23.296;2022-08-05T11:48:51;94627.25;;;39.26;22.79
12795;BME280;6461;42.666;23.296;2022-08-05T11:51:17;94633.13;;;39.33;23.10
12795;BME280;6461;42.666;23.296;2022-08-05T11:53:44;94629.59;;;38.80;20.31
12795;BME280;6461;42.666;23.296;2022-08-05T11:56:11;94634.84;;;38.69;21.46
12795;BME280;6461;42.666;23.296;2022-08-05T11:58:40;94629.25;;;38.40;21.06
12795;BME280;6461;42.666;23.296;2022-08-05T12:01:08;94632.31;;;38.00;21.73
12795;BME280;6461;42.666;23.296;2022-08-05T12:03:42;94628.94;;;38.05;21.93
12795;BME280;6461;42.666;23.296;2022-08-05T12:06:09;94622.56;;;37.99;23.28
12795;BME280;6461;42.666;23.296;2022-08-05T12:08:40;94620.03;;;37.77;22.02
12795;BME280;6461;42.666;23.296;2022-08-05T12:11:08;94624.63;;;37.80;23.65
12795;BME280;6461;42.666;23.296;2022-08-05T12:13:35;94614.22;;;37.93;24.81
12795;BME280;6461;42.666;23.296;2022-08-05T12:16:04;94611.38;;;38.11;23.60
12795;BME280;6461;42.666;23.296;2022-08-05T12:18:34;94606.78;;;38.17;23.73
12795;BME280;6461;42.666;23.296;2022-08-05T12:21:10;94609.22;;;38.24;23.66
12795;BME280;6461;42.666;23.296;2022-08-05T12:23:37;94604.59;;;37.98;21.19
12795;BME280;6461;42.666;23.296;2022-08-05T12:26:04;94603.91;;;37.19;21.30
12795;BME280;6461;42.666;23.296;2022-08-05T12:28:31;94606.84;;;37.67;22.40
12795;BME280;6461;42.666;23.296;2022-08-05T12:30:58;94605.28;;;36.97;21.62
12795;BME280;6461;42.666;23.296;2022-08-05T12:33:26;94597.94;;;37.21;23.13
12795;BME280;6461;42.666;23.296;2022-08-05T12:35:53;94592.47;;;37.39;22.40
12795;BME280;6461;42.666;23.296;2022-08-05T12:38:20;94598.06;;;37.53;22.53
12795;BME280;6461;42.666;23.296;2022-08-05T12:40:48;94589.44;;;37.37;22.89
12795;BME280;6461;42.666;23.296;2022-08-05T12:43:14;94593.25;;;36.85;22.43
12795;BME280;6461;42.666;23.296;2022-08-05T12:45:49;94590.03;;;37.23;22.34
12795;BME280;6461;42.666;23.296;2022-08-05T12:48:15;94585.25;;;37.59;24.84
12795;BME280;6461;42.666;23.296;2022-08-05T12:50:43;94584.13;;;37.75;24.18
12795;BME280;6461;42.666;23.296;2022-08-05T12:53:30;94580.78;;;37.71;22.54
12795;BME280;6461;42.666;23.296;2022-08-05T12:55:56;94577.19;;;37.56;23.38
12795;BME280;6461;42.666;23.296;2022-08-05T12:58:23;94579.97;;;37.38;23.77
12795;BME280;6461;42.666;23.296;2022-08-05T13:00:50;94581.19;;;37.28;23.65
12795;BME280;6461;42.666;23.296;2022-08-05T13:03:16;94567.53;;;37.01;24.15
12795;BME280;6461;42.666;23.296;2022-08-05T13:05:46;94573.16;;;36.79;24.06
12795;BME280;6461;42.666;23.296;2022-08-05T13:08:15;94570.75;;;36.63;25.27
12795;BME280;6461;42.666;23.296;2022-08-05T13:10:42;94569.53;;;36.46;24.57
12795;BME280;6461;42.666;23.296;2022-08-05T13:13:08;94564.78;;;36.37;24.31
12795;BME280;6461;42.666;23.296;2022-08-05T13:15:38;94569.31;;;36.22;24.01
12795;BME280;6461;42.666;23.296;2022-08-05T13:18:05;94562.66;;;36.32;24.43